Time;durP1;ratioP1;P1;durP2;ratioP2;P2;SDS_P1;SDS_P2;PMS_P1;PMS_P2;Temp;Humidity;BMP_temperature;BMP_pressure;BME280_temperature;BME280_humidity;BME280_pressure;Samples;Min_cycle;Max_cycle;Signal;HPM_P1;HPM_P2
2021/01/07 00:01:46;;;;;;;95.57;31.53;;;0.70;99.90;;;;;;4412470;28;660200;-63
2021/01/07 00:04:35;;;;;;;102.47;36.13;;;0.70;99.90;;;;;;4394128;28;658207;-63
2021/01/07 00:07:25;;;;;;;129.18;40.25;;;0.70;99.90;;;;;;4415339;28;659818;-63
2021/01/07 00:10:12;;;;;;;115.17;38.17;;;0.70;99.90;;;;;;4386254;28;660295;-64
2021/01/07 00:12:59;;;;;;;115.83;38.73;;;0.70;99.90;;;;;;4395358;28;658455;-63
2021/01/07 00:15:46;;;;;;;114.73;37.47;;;0.60;99.90;;;;;;4412913;28;659390;-63
2021/01/07 00:18:34;;;;;;;98.40;34.50;;;0.70;99.90;;;;;;4385911;28;658682;-63
2021/01/07 00:21:21;;;;;;;97.73;31.80;;;0.70;99.90;;;;;;4420394;28;658041;-64
2021/01/07 00:24:09;;;;;;;116.47;34.45;;;0.70;99.90;;;;;;4394734;28;657429;-63
2021/01/07 00:26:56;;;;;;;154.40;41.70;;;0.70;99.90;;;;;;4414620;28;660024;-63
2021/01/07 00:29:43;;;;;;;119.93;40.70;;;0.70;99.90;;;;;;4415538;28;659226;-63
2021/01/07 00:32:30;;;;;;;144.07;43.67;;;0.60;99.90;;;;;;4384252;28;658712;-63
2021/01/07 00:35:16;;;;;;;177.00;50.87;;;0.60;99.90;;;;;;4408901;28;660892;-64
2021/01/07 00:38:05;;;;;;;188.98;56.70;;;0.60;99.90;;;;;;4400216;28;658479;-63
2021/01/07 00:40:52;;;;;;;195.43;57.10;;;0.60;99.90;;;;;;4401319;28;659267;-64
2021/01/07 00:43:39;;;;;;;200.38;57.45;;;0.60;99.90;;;;;;4389769;28;659922;-63
2021/01/07 00:46:26;;;;;;;165.00;49.63;;;0.60;99.90;;;;;;4414393;28;658696;-64
2021/01/07 00:49:13;;;;;;;204.50;56.47;;;0.60;99.90;;;;;;4406250;28;660282;-63
2021/01/07 00:52:00;;;;;;;222.30;60.60;;;0.60;99.90;;;;;;4394958;28;658770;-63
2021/01/07 00:54:48;;;;;;;265.85;74.13;;;0.60;99.90;;;;;;4414388;28;660048;-63
2021/01/07 00:57:35;;;;;;;367.73;58.58;;;0.60;99.90;;;;;;4389197;28;658747;-64
2021/01/07 01:00:23;;;;;;;353.45;59.38;;;0.60;99.90;;;;;;4414149;28;660217;-63
2021/01/07 01:03:10;;;;;;;179.20;50.17;;;0.60;99.90;;;;;;4391223;28;659280;-64
2021/01/07 01:05:57;;;;;;;176.87;51.77;;;0.60;99.90;;;;;;4398684;28;658829;-64
2021/01/07 01:08:44;;;;;;;181.60;55.20;;;0.60;99.90;;;;;;4395488;28;658652;-63
2021/01/07 01:11:37;;;;;;;189.73;52.83;;;0.60;99.90;;;;;;4405605;28;660382;-64
2021/01/07 01:14:24;;;;;;;291.83;51.63;;;0.60;99.90;;;;;;4365122;28;659316;-63
2021/01/07 01:17:11;;;;;;;153.30;46.50;;;0.60;99.90;;;;;;4406914;28;660726;-63
2021/01/07 01:19:58;;;;;;;149.30;45.67;;;0.60;99.90;;;;;;4413788;28;658517;-64
2021/01/07 01:22:45;;;;;;;89.60;33.80;;;0.60;99.90;;;;;;4395195;28;659168;-64
2021/01/07 01:25:32;;;;;;;177.53;50.87;;;0.70;99.90;;;;;;4401870;28;658320;-63
2021/01/07 01:28:20;;;;;;;100.53;34.28;;;0.70;99.90;;;;;;4395259;28;658615;-63
2021/01/07 01:31:07;;;;;;;96.53;33.20;;;0.70;99.90;;;;;;4407355;28;659633;-63
2021/01/07 01:33:54;;;;;;;99.00;35.73;;;0.70;99.90;;;;;;4395890;28;657629;-63
2021/01/07 01:36:41;;;;;;;120.17;39.50;;;0.70;99.90;;;;;;4401327;28;658899;-63
2021/01/07 01:39:28;;;;;;;100.97;37.70;;;0.80;99.90;;;;;;4414002;28;658630;-63
2021/01/07 01:42:15;;;;;;;103.57;35.13;;;0.70;99.90;;;;;;4389345;28;658657;-63
2021/01/07 01:45:03;;;;;;;88.55;34.60;;;0.70;99.90;;;;;;4405381;28;659731;-64
2021/01/07 01:47:50;;;;;;;102.43;36.40;;;0.80;99.90;;;;;;4383671;28;659511;-63
2021/01/07 01:50:37;;;;;;;115.20;40.33;;;0.80;99.90;;;;;;4406724;28;659712;-63
2021/01/07 01:53:24;;;;;;;94.03;34.57;;;0.80;99.90;;;;;;4395230;28;658836;-63
2021/01/07 01:56:11;;;;;;;100.07;36.23;;;0.80;99.90;;;;;;4415383;28;658588;-64
2021/01/07 01:58:58;;;;;;;97.33;35.30;;;0.80;99.90;;;;;;4407732;28;659254;-64
2021/01/07 02:01:46;;;;;;;105.93;37.87;;;0.90;99.90;;;;;;4377875;28;657845;-63
2021/01/07 02:04:34;;;;;;;107.47;38.23;;;0.80;99.90;;;;;;4414005;28;658915;-63
2021/01/07 02:07:21;;;;;;;104.83;37.10;;;0.90;99.90;;;;;;4413672;28;660087;-64
2021/01/07 02:10:09;;;;;;;115.00;37.13;;;0.90;99.90;;;;;;4390787;28;659072;-63
2021/01/07 02:12:57;;;;;;;111.90;38.50;;;0.90;99.90;;;;;;4415566;28;660136;-64
2021/01/07 02:15:44;;;;;;;108.32;38.35;;;0.90;99.90;;;;;;4389572;28;658666;-63
2021/01/07 02:18:32;;;;;;;108.40;40.20;;;0.90;99.90;;;;;;4417758;28;658660;-63
2021/01/07 02:21:19;;;;;;;106.40;37.03;;;0.90;99.90;;;;;;4396276;28;658875;-63
2021/01/07 02:24:08;;;;;;;107.40;38.03;;;0.90;99.90;;;;;;4416167;28;660536;-63
2021/01/07 02:26:54;;;;;;;115.00;39.70;;;0.90;99.90;;;;;;4394544;28;658710;-63
2021/01/07 02:29:41;;;;;;;122.20;40.97;;;0.90;99.90;;;;;;4404655;28;660073;-63
2021/01/07 02:32:29;;;;;;;121.27;40.90;;;0.90;99.90;;;;;;4402814;28;658493;-63
2021/01/07 02:35:15;;;;;;;103.67;38.40;;;0.90;99.90;;;;;;4405286;28;659083;-64
2021/01/07 02:38:03;;;;;;;121.30;40.43;;;0.90;99.90;;;;;;4413288;28;658846;-64
2021/01/07 02:40:51;;;;;;;110.30;38.87;;;0.80;99.90;;;;;;4389841;28;659764;-63
2021/01/07 02:43:38;;;;;;;104.60;38.60;;;0.90;99.90;;;;;;4411624;28;658618;-64
2021/01/07 02:46:25;;;;;;;120.90;40.17;;;0.80;99.90;;;;;;4384972;28;659545;-63
2021/01/07 02:49:11;;;;;;;133.87;41.17;;;0.80;99.90;;;;;;4412565;28;660201;-63
2021/01/07 02:51:59;;;;;;;120.13;39.30;;;0.80;99.90;;;;;;4397563;28;658489;-63
2021/01/07 02:54:46;;;;;;;128.30;40.33;;;0.80;99.90;;;;;;4399921;28;659766;-63
2021/01/07 02:57:34;;;;;;;112.07;39.57;;;0.80;99.90;;;;;;4402845;28;659223;-62
2021/01/07 03:00:21;;;;;;;107.53;39.47;;;1.00;99.90;;;;;;4412965;28;658410;-63
2021/01/07 03:03:09;;;;;;;118.93;41.13;;;0.90;99.90;;;;;;4409305;28;658866;-63
2021/01/07 03:05:56;;;;;;;121.28;42.63;;;0.90;99.90;;;;;;4420167;28;658791;-64
2021/01/07 03:08:43;;;;;;;121.65;43.10;;;0.80;99.90;;;;;;4401736;28;659735;-64
2021/01/07 03:11:31;;;;;;;113.33;41.30;;;0.80;99.90;;;;;;4396414;28;658747;-63
2021/01/07 03:14:17;;;;;;;108.20;38.10;;;1.00;99.90;;;;;;4415599;28;659083;-64
2021/01/07 03:17:04;;;;;;;114.80;39.87;;;1.00;99.90;;;;;;4396330;28;658664;-64
2021/01/07 03:19:51;;;;;;;122.65;40.25;;;1.00;99.90;;;;;;4406493;28;660211;-64
2021/01/07 03:22:39;;;;;;;108.07;39.50;;;0.90;99.90;;;;;;4385974;28;659486;-63
2021/01/07 03:25:26;;;;;;;113.00;40.37;;;1.00;99.90;;;;;;4415683;28;659859;-63
2021/01/07 03:28:14;;;;;;;93.10;33.57;;;0.90;99.90;;;;;;4408711;28;658750;-64
2021/01/07 03:31:01;;;;;;;93.37;32.70;;;1.00;99.90;;;;;;4394005;28;658966;-64
2021/01/07 03:33:48;;;;;;;99.07;34.80;;;1.00;99.90;;;;;;4416968;28;658795;-63
2021/01/07 03:36:35;;;;;;;90.47;32.50;;;1.10;99.90;;;;;;4387399;28;658785;-63
2021/01/07 03:39:22;;;;;;;99.77;36.43;;;1.20;99.90;;;;;;4417091;28;657453;-64
2021/01/07 03:42:09;;;;;;;101.97;37.07;;;1.10;99.90;;;;;;4391767;28;658406;-63
2021/01/07 03:44:57;;;;;;;98.07;36.27;;;1.00;99.90;;;;;;4416133;28;660433;-64
2021/01/07 03:47:44;;;;;;;97.03;32.10;;;1.00;99.90;;;;;;4392740;28;657818;-63
2021/01/07 03:50:31;;;;;;;95.10;34.30;;;1.00;99.90;;;;;;4420644;28;657648;-64
2021/01/07 03:53:18;;;;;;;99.17;35.03;;;1.10;99.90;;;;;;4416757;28;658091;-64
2021/01/07 03:56:05;;;;;;;109.90;38.57;;;1.00;99.90;;;;;;4392576;28;657557;-63
2021/01/07 03:58:52;;;;;;;111.43;36.27;;;0.90;99.90;;;;;;4403560;28;659036;-63
2021/01/07 04:01:43;;;;;;;105.93;38.30;;;0.80;99.90;;;;;;4390459;28;658881;-63
2021/01/07 04:04:30;;;;;;;105.63;37.57;;;0.80;99.90;;;;;;4392331;28;658546;-63
2021/01/07 04:07:17;;;;;;;121.13;40.33;;;0.80;99.90;;;;;;4410637;28;659319;-64
2021/01/07 04:10:05;;;;;;;111.40;38.03;;;0.80;99.90;;;;;;4395365;28;658678;-63
2021/01/07 04:12:52;;;;;;;98.27;36.17;;;0.80;99.90;;;;;;4406410;28;658876;-63
2021/01/07 04:15:39;;;;;;;105.83;38.97;;;1.00;99.90;;;;;;4397576;28;658939;-64
2021/01/07 04:18:27;;;;;;;113.97;41.17;;;0.90;99.90;;;;;;4401751;28;659490;-63
2021/01/07 04:21:17;;;;;;;112.87;38.33;;;0.90;99.90;;;;;;4388137;28;659569;-63
2021/01/07 04:24:04;;;;;;;110.63;38.70;;;0.80;99.90;;;;;;4391306;28;658868;-63
2021/01/07 04:26:51;;;;;;;100.87;36.73;;;0.80;99.90;;;;;;4417697;28;659868;-64
2021/01/07 04:29:39;;;;;;;102.97;39.73;;;0.80;99.90;;;;;;4407507;28;658978;-63
2021/01/07 04:32:26;;;;;;;104.77;37.97;;;0.80;99.90;;;;;;4418587;28;658491;-64
2021/01/07 04:35:13;;;;;;;97.85;38.35;;;0.80;99.90;;;;;;4414866;28;659998;-64
2021/01/07 04:38:00;;;;;;;95.27;35.50;;;0.90;99.90;;;;;;4383995;28;658290;-63
2021/01/07 04:40:47;;;;;;;28.03;13.33;;;1.20;99.90;;;;;;4415023;28;657504;-64
2021/01/07 04:43:34;;;;;;;81.97;30.07;;;1.20;99.90;;;;;;4391674;28;657554;-63
2021/01/07 04:46:24;;;;;;;87.13;34.17;;;1.10;99.90;;;;;;4419915;28;658631;-64
2021/01/07 04:49:11;;;;;;;83.23;31.73;;;1.10;99.90;;;;;;4392524;28;658743;-64
2021/01/07 04:52:00;;;;;;;93.87;36.83;;;1.00;99.90;;;;;;4405799;28;657629;-63
2021/01/07 04:54:47;;;;;;;47.87;16.63;;;0.90;99.90;;;;;;4415920;28;659526;-64
2021/01/07 04:57:34;;;;;;;38.25;13.32;;;1.20;99.90;;;;;;4388392;28;657441;-62
2021/01/07 05:00:21;;;;;;;78.27;31.47;;;1.20;99.90;;;;;;4419826;28;657668;-64
2021/01/07 05:03:09;;;;;;;77.27;31.23;;;1.20;99.90;;;;;;4397373;28;658571;-62
2021/01/07 05:05:55;;;;;;;88.27;33.17;;;1.10;99.90;;;;;;4419576;28;657709;-63
2021/01/07 05:08:43;;;;;;;92.30;34.67;;;1.00;99.90;;;;;;4395149;28;657821;-64
2021/01/07 05:11:30;;;;;;;94.80;36.83;;;0.90;99.90;;;;;;4392581;28;659585;-64
2021/01/07 05:14:18;;;;;;;44.15;16.60;;;0.80;99.90;;;;;;4405757;28;657513;-64
2021/01/07 05:17:08;;;;;;;90.65;31.45;;;0.90;99.90;;;;;;4396833;28;658838;-63
2021/01/07 05:19:55;;;;;;;68.30;27.80;;;0.90;99.90;;;;;;4383699;28;657743;-64
2021/01/07 05:22:45;;;;;;;86.50;31.50;;;1.10;99.90;;;;;;4406339;28;657919;-64
2021/01/07 05:25:33;;;;;;;77.37;31.97;;;0.90;99.90;;;;;;4392624;28;659427;-64
2021/01/07 05:28:20;;;;;;;71.30;29.60;;;0.90;99.90;;;;;;4392468;28;659706;-64
2021/01/07 05:31:09;;;;;;;79.17;30.40;;;1.00;99.90;;;;;;4407584;28;657868;-64
2021/01/07 05:33:56;;;;;;;84.27;31.53;;;1.00;99.90;;;;;;4392432;28;658536;-63
2021/01/07 05:36:44;;;;;;;77.93;30.80;;;0.90;99.90;;;;;;4400184;28;657831;-64
2021/01/07 05:39:34;;;;;;;66.10;27.03;;;1.10;99.90;;;;;;4419429;28;657664;-64
2021/01/07 05:42:22;;;;;;;75.23;30.70;;;1.10;99.90;;;;;;4386592;28;659530;-63
2021/01/07 05:45:10;;;;;;;83.33;29.60;;;1.00;99.90;;;;;;4396347;28;657935;-63
2021/01/07 05:47:56;;;;;;;71.67;29.27;;;0.90;99.90;;;;;;4409428;28;659416;-64
2021/01/07 05:50:44;;;;;;;78.25;32.72;;;0.80;99.90;;;;;;4400418;28;657389;-63
2021/01/07 05:53:31;;;;;;;62.93;25.00;;;0.80;99.90;;;;;;4413198;28;657624;-64
2021/01/07 05:56:19;;;;;;;63.03;26.20;;;1.00;99.90;;;;;;4414749;28;657718;-64
2021/01/07 05:59:08;;;;;;;72.97;29.43;;;1.00;99.90;;;;;;4387597;28;658641;-64
2021/01/07 06:01:55;;;;;;;43.93;18.67;;;0.80;99.90;;;;;;4387165;28;657868;-63
2021/01/07 06:04:43;;;;;;;47.73;21.63;;;1.00;99.90;;;;;;4404532;28;658573;-64
2021/01/07 06:07:30;;;;;;;33.83;13.00;;;0.80;99.90;;;;;;4392427;28;658367;-64
2021/01/07 06:10:17;;;;;;;50.87;21.43;;;0.90;99.90;;;;;;4414486;28;658613;-64
2021/01/07 06:13:04;;;;;;;33.07;14.50;;;0.90;99.90;;;;;;4395829;28;657798;-63
2021/01/07 06:15:52;;;;;;;30.52;12.25;;;0.80;99.90;;;;;;4409160;28;657474;-64
2021/01/07 06:18:39;;;;;;;42.00;18.10;;;1.00;99.90;;;;;;4396330;28;657649;-63
2021/01/07 06:21:27;;;;;;;46.70;18.87;;;0.90;99.90;;;;;;4413844;28;658389;-64
2021/01/07 06:24:14;;;;;;;55.27;19.77;;;0.70;99.90;;;;;;4395271;28;657739;-63
2021/01/07 06:27:33;;;;;;;52.47;20.33;;;0.60;99.90;;;;;;4418746;28;659045;-64
2021/01/07 06:30:38;;;;;;;39.17;16.17;;;0.60;99.90;;;;;;4364694;28;659249;-64
2021/01/07 06:33:29;;;;;;;50.40;18.80;;;0.70;99.90;;;;;;4366869;28;659624;-63
2021/01/07 06:36:16;;;;;;;43.30;16.90;;;0.90;99.90;;;;;;4393137;28;658326;-63
2021/01/07 06:39:04;;;;;;;58.10;21.55;;;0.80;99.90;;;;;;4396905;28;659136;-62
2021/01/07 06:41:54;;;;;;;51.90;20.93;;;0.80;99.90;;;;;;4406089;28;659552;-63
2021/01/07 06:44:41;;;;;;;48.97;20.17;;;0.80;99.90;;;;;;4384759;28;659665;-64
2021/01/07 06:47:29;;;;;;;30.17;12.03;;;0.70;99.90;;;;;;4413551;28;657916;-63
2021/01/07 06:50:17;;;;;;;50.77;18.47;;;0.70;99.90;;;;;;4417595;28;658657;-64
2021/01/07 06:53:04;;;;;;;51.90;19.67;;;0.80;99.90;;;;;;4398592;28;657513;-63
2021/01/07 06:56:11;;;;;;;58.53;21.20;;;0.80;99.90;;;;;;4402753;28;658858;-63
2021/01/07 06:58:58;;;;;;;45.27;16.00;;;0.60;99.90;;;;;;4370493;28;657711;-64
2021/01/07 07:01:48;;;;;;;54.77;20.77;;;0.50;99.90;;;;;;4380110;28;658858;-63
2021/01/07 07:04:35;;;;;;;52.80;20.83;;;0.60;99.90;;;;;;4377509;28;659424;-64
2021/01/07 07:07:49;;;;;;;62.60;22.87;;;0.40;99.90;;;;;;4398465;28;657600;-64
2021/01/07 07:11:07;;;;;;;55.40;18.87;;;0.40;99.90;;;;;;4375912;28;657351;-69
2021/01/07 07:13:54;;;;;;;54.00;20.43;;;0.50;99.90;;;;;;4377172;28;657818;-68
2021/01/07 07:16:41;;;;;;;47.83;18.40;;;0.40;99.90;;;;;;4398936;28;658325;-69
2021/01/07 07:19:28;;;;;;;47.57;17.77;;;0.40;99.90;;;;;;4390945;28;657577;-69
2021/01/07 07:22:18;;;;;;;49.23;16.70;;;0.40;99.90;;;;;;4380245;28;657610;-67
2021/01/07 07:25:07;;;;;;;37.43;14.43;;;0.30;99.90;;;;;;4375976;28;658636;-69
2021/01/07 07:27:55;;;;;;;34.77;14.93;;;0.30;99.90;;;;;;4375487;28;657850;-68
2021/01/07 07:30:42;;;;;;;35.67;13.30;;;0.30;99.90;;;;;;4392702;28;658238;-69
2021/01/07 07:33:32;;;;;;;33.77;13.73;;;0.50;99.90;;;;;;4375240;28;658236;-68
2021/01/07 07:36:26;;;;;;;35.47;14.23;;;0.50;99.90;;;;;;4379996;28;657352;-66
2021/01/07 07:39:14;;;;;;;29.77;12.97;;;0.50;99.90;;;;;;4361224;28;657920;-66
2021/01/07 07:42:12;;;;;;;37.70;15.77;;;0.50;99.90;;;;;;4403226;28;657858;-69
2021/01/07 07:44:59;;;;;;;39.83;16.23;;;0.50;99.90;;;;;;4348481;28;657986;-67
2021/01/07 07:47:46;;;;;;;29.50;11.50;;;0.50;99.90;;;;;;4394366;28;658932;-69
2021/01/07 07:50:34;;;;;;;39.40;17.37;;;0.60;99.90;;;;;;4385015;28;657615;-66
2021/01/07 07:53:21;;;;;;;33.00;14.27;;;0.50;99.90;;;;;;4402400;28;658626;-69
2021/01/07 07:56:20;;;;;;;30.53;13.73;;;0.30;99.90;;;;;;4394293;28;657867;-69
2021/01/07 07:59:09;;;;;;;29.73;13.30;;;0.40;99.90;;;;;;4393292;28;657500;-68
2021/01/07 08:01:57;;;;;;;26.47;12.57;;;0.40;99.90;;;;;;4391746;28;659347;-69
2021/01/07 08:04:45;;;;;;;28.17;13.07;;;0.50;99.90;;;;;;4396734;28;657786;-68
2021/01/07 08:07:32;;;;;;;26.50;11.80;;;0.50;99.90;;;;;;4404981;28;659718;-69
2021/01/07 08:10:19;;;;;;;28.13;11.77;;;0.60;99.90;;;;;;4392999;28;657620;-68
2021/01/07 08:13:07;;;;;;;30.57;13.37;;;0.60;99.90;;;;;;4415363;28;658806;-68
2021/01/07 08:15:56;;;;;;;21.10;10.10;;;0.50;99.90;;;;;;4396233;28;657790;-69
2021/01/07 08:18:43;;;;;;;20.27;9.15;;;0.50;99.90;;;;;;4415322;28;657294;-69
2021/01/07 08:21:30;;;;;;;27.67;12.80;;;0.70;99.90;;;;;;4399221;28;656413;-69
2021/01/07 08:24:18;;;;;;;21.13;8.33;;;0.60;99.90;;;;;;4411994;28;659095;-69
2021/01/07 08:27:12;;;;;;;27.40;12.40;;;0.60;99.90;;;;;;4390756;28;657136;-68
2021/01/07 08:30:00;;;;;;;24.33;10.90;;;0.50;99.90;;;;;;4372279;28;657720;-69
2021/01/07 08:32:48;;;;;;;17.33;7.23;;;0.60;99.90;;;;;;4403026;28;657985;-69
2021/01/07 08:35:35;;;;;;;18.70;9.33;;;0.60;99.90;;;;;;4380622;28;658730;-69
2021/01/07 08:38:27;;;;;;;20.93;9.47;;;0.60;99.90;;;;;;4414830;28;656520;-69
2021/01/07 08:41:15;;;;;;;8.10;3.83;;;0.60;99.90;;;;;;4365218;28;656622;-65
2021/01/07 08:44:08;;;;;;;20.13;9.57;;;0.80;99.90;;;;;;4409383;28;655324;-69
2021/01/07 08:46:55;;;;;;;15.80;7.33;;;0.80;99.90;;;;;;4362845;28;657538;-70
2021/01/07 08:49:43;;;;;;;18.47;8.40;;;0.70;99.90;;;;;;4418833;28;657522;-69
2021/01/07 08:52:30;;;;;;;19.30;9.10;;;0.70;99.90;;;;;;4386265;28;656496;-69
2021/01/07 08:55:17;;;;;;;21.27;10.43;;;0.70;99.90;;;;;;4415617;28;657456;-69
2021/01/07 08:58:04;;;;;;;20.47;9.87;;;0.60;99.90;;;;;;4382990;28;657876;-69
2021/01/07 09:00:52;;;;;;;24.53;10.63;;;0.50;99.90;;;;;;4418907;28;657904;-69
2021/01/07 09:03:39;;;;;;;21.23;9.73;;;0.60;99.90;;;;;;4398458;28;657752;-66
2021/01/07 09:06:27;;;;;;;25.13;11.23;;;0.50;99.90;;;;;;4419915;28;656905;-69
2021/01/07 09:09:14;;;;;;;8.80;3.60;;;0.50;99.90;;;;;;4388832;28;657593;-68
2021/01/07 09:12:11;;;;;;;30.93;13.60;;;0.60;99.90;;;;;;4403306;28;656488;-69
2021/01/07 09:15:00;;;;;;;23.83;9.35;;;0.60;99.90;;;;;;4387471;28;657543;-66
2021/01/07 09:17:48;;;;;;;26.63;9.80;;;0.80;99.90;;;;;;4408978;28;657069;-69
2021/01/07 09:20:35;;;;;;;25.53;11.40;;;0.90;99.90;;;;;;4396162;28;656606;-66
2021/01/07 09:23:23;;;;;;;20.53;8.30;;;0.90;99.90;;;;;;4397850;28;658391;-70
2021/01/07 09:26:10;;;;;;;24.83;9.90;;;1.00;99.90;;;;;;4391197;28;656362;-69
2021/01/07 09:28:57;;;;;;;26.03;10.40;;;0.90;99.90;;;;;;4407844;28;657843;-69
2021/01/07 09:31:44;;;;;;;28.87;11.60;;;0.80;99.90;;;;;;4390872;28;657707;-67
2021/01/07 09:34:31;;;;;;;26.95;11.98;;;0.70;99.90;;;;;;4416980;28;657547;-70
2021/01/07 09:37:19;;;;;;;9.77;4.43;;;0.80;99.90;;;;;;4406715;28;657610;-66
2021/01/07 09:40:08;;;;;;;24.93;10.90;;;0.90;99.90;;;;;;4420330;28;655936;-69
2021/01/07 09:42:55;;;;;;;22.95;12.15;;;0.80;99.90;;;;;;4389804;28;657683;-68
2021/01/07 09:45:41;;;;;;;27.23;12.27;;;0.70;99.90;;;;;;4413650;28;659474;-69
2021/01/07 09:48:29;;;;;;;33.72;14.98;;;0.60;99.90;;;;;;4399238;28;657467;-67
2021/01/07 09:51:16;;;;;;;35.17;15.52;;;0.50;99.90;;;;;;4412719;28;657522;-69
2021/01/07 09:54:03;;;;;;;30.50;13.63;;;0.50;99.90;;;;;;4413705;28;657685;-69
2021/01/07 09:56:55;;;;;;;14.30;5.90;;;0.70;99.90;;;;;;4395581;28;658436;-68
2021/01/07 09:59:42;;;;;;;33.75;15.10;;;0.70;99.90;;;;;;4392370;28;657957;-68
2021/01/07 10:02:29;;;;;;;25.50;10.93;;;0.70;99.90;;;;;;4382765;28;657916;-66
2021/01/07 10:05:16;;;;;;;18.67;7.77;;;0.70;99.90;;;;;;4413594;28;658536;-68
2021/01/07 10:08:02;;;;;;;25.50;9.93;;;0.60;99.90;;;;;;4411088;28;656474;-69
2021/01/07 10:10:50;;;;;;;36.37;15.30;;;0.60;99.90;;;;;;4399817;28;656673;-69
2021/01/07 10:13:38;;;;;;;37.85;13.95;;;0.50;99.90;;;;;;4418213;28;658782;-69
2021/01/07 10:16:24;;;;;;;31.67;14.27;;;0.40;99.90;;;;;;4395194;28;657714;-69
2021/01/07 10:19:11;;;;;;;30.30;14.70;;;0.30;99.90;;;;;;4416965;28;658654;-69
2021/01/07 10:22:00;;;;;;;13.55;5.97;;;0.50;99.90;;;;;;4390188;28;658534;-66
2021/01/07 10:24:47;;;;;;;30.70;13.03;;;0.70;99.90;;;;;;4417799;28;657359;-69
2021/01/07 10:27:34;;;;;;;29.97;13.73;;;0.70;99.90;;;;;;4387965;28;657861;-68
2021/01/07 10:30:23;;;;;;;25.70;10.93;;;0.60;99.90;;;;;;4419328;28;658436;-69
2021/01/07 10:33:10;;;;;;;27.80;12.90;;;0.70;99.90;;;;;;4388275;28;657555;-68
2021/01/07 10:35:57;;;;;;;28.00;11.53;;;0.80;99.90;;;;;;4416665;28;657843;-69
2021/01/07 10:38:46;;;;;;;21.43;8.97;;;0.90;99.90;;;;;;4384978;28;657711;-67
2021/01/07 10:41:34;;;;;;;23.87;10.93;;;0.90;99.90;;;;;;4412036;28;656546;-66
2021/01/07 10:44:20;;;;;;;24.40;10.73;;;0.90;99.90;;;;;;4412683;28;657994;-69
2021/01/07 10:47:09;;;;;;;22.40;9.43;;;0.80;99.90;;;;;;4414775;28;657100;-69
2021/01/07 10:49:56;;;;;;;20.77;9.40;;;0.60;99.90;;;;;;4391812;28;657139;-69
2021/01/07 10:53:03;;;;;;;29.07;11.03;;;0.70;99.90;;;;;;4412981;28;656614;-67
2021/01/07 10:55:53;;;;;;;13.90;5.33;;;0.60;99.90;;;;;;4389900;28;657455;-69
2021/01/07 10:58:50;;;;;;;23.87;11.07;;;0.80;99.90;;;;;;4381986;28;657204;-69
2021/01/07 11:01:45;;;;;;;15.27;7.57;;;0.80;99.90;;;;;;4386085;28;658445;-69
2021/01/07 11:05:14;;;;;;;28.33;12.60;;;0.70;99.90;;;;;;4387883;28;656768;-69
2021/01/07 11:08:08;;;;;;;31.70;12.87;;;0.80;99.90;;;;;;4362841;28;657736;-69
2021/01/07 11:10:55;;;;;;;18.93;7.73;;;0.80;99.90;;;;;;4378879;28;657491;-69
2021/01/07 11:13:45;;;;;;;24.93;11.03;;;0.90;99.90;;;;;;4412036;28;657387;-69
2021/01/07 11:16:41;;;;;;;21.27;8.18;;;1.20;99.90;;;;;;4386780;28;659410;-69
2021/01/07 11:19:30;;;;;;;24.00;9.77;;;1.10;99.90;;;;;;4380666;28;656895;-66
2021/01/07 11:22:20;;;;;;;16.83;7.57;;;0.90;99.90;;;;;;4409345;28;657942;-68
2021/01/07 11:25:08;;;;;;;23.60;9.83;;;0.80;99.90;;;;;;4384791;28;657048;-68
2021/01/07 11:27:55;;;;;;;19.67;9.40;;;0.70;99.90;;;;;;4384219;28;656830;-68
2021/01/07 11:30:42;;;;;;;18.33;7.47;;;0.70;99.90;;;;;;4397692;28;656790;-69
2021/01/07 11:33:33;;;;;;;16.33;6.50;;;0.50;99.90;;;;;;4390421;28;657240;-69
2021/01/07 11:36:22;;;;;;;20.93;8.30;;;0.40;99.90;;;;;;4403159;28;656465;-68
2021/01/07 11:39:12;;;;;;;26.37;11.47;;;0.50;99.90;;;;;;4389010;28;656678;-68
2021/01/07 11:42:05;;;;;;;30.03;13.00;;;0.40;99.90;;;;;;4388298;28;657432;-65
2021/01/07 11:44:56;;;;;;;26.00;11.20;;;0.50;99.90;;;;;;4381398;28;659530;-69
2021/01/07 11:47:47;;;;;;;24.57;10.90;;;0.40;99.90;;;;;;4390061;28;657509;-69
2021/01/07 11:50:36;;;;;;;30.30;12.67;;;0.30;99.90;;;;;;4366931;28;658233;-68
2021/01/07 11:53:25;;;;;;;31.50;12.38;;;0.30;99.90;;;;;;4400966;28;658600;-67
2021/01/07 11:56:13;;;;;;;26.13;12.60;;;0.20;99.90;;;;;;4408445;28;658835;-68
2021/01/07 11:59:01;;;;;;;26.63;12.43;;;0.30;99.90;;;;;;4382377;28;658928;-69
2021/01/07 12:01:47;;;;;;;29.53;13.27;;;0.30;99.90;;;;;;4415102;28;658853;-69
2021/01/07 12:04:35;;;;;;;31.53;12.03;;;0.30;99.90;;;;;;4391170;28;657908;-68
2021/01/07 12:07:29;;;;;;;32.90;13.50;;;0.50;99.90;;;;;;4416154;28;657775;-69
2021/01/07 12:10:15;;;;;;;31.10;12.90;;;0.40;99.90;;;;;;4369498;28;658845;-68
2021/01/07 12:13:07;;;;;;;34.50;14.73;;;0.50;99.90;;;;;;4403484;28;657111;-68
2021/01/07 12:15:54;;;;;;;24.03;8.53;;;0.50;99.90;;;;;;4371415;28;657248;-67
2021/01/07 12:18:41;;;;;;;24.20;9.70;;;0.60;99.90;;;;;;4416267;28;656916;-69
2021/01/07 12:21:27;;;;;;;26.93;8.90;;;0.60;99.90;;;;;;4423397;28;656258;-69
2021/01/07 12:24:14;;;;;;;34.87;13.97;;;0.60;99.90;;;;;;4393770;28;656643;-68
2021/01/07 12:27:01;;;;;;;11.23;4.27;;;0.60;99.90;;;;;;4403791;28;658774;-70
2021/01/07 12:29:50;;;;;;;34.60;14.03;;;0.70;99.90;;;;;;4403476;28;656504;-65
2021/01/07 12:32:36;;;;;;;38.63;16.93;;;0.60;99.90;;;;;;4399991;28;659125;-69
2021/01/07 12:35:24;;;;;;;39.17;16.53;;;0.60;99.90;;;;;;4403611;28;657549;-65
2021/01/07 12:38:17;;;;;;;37.53;16.13;;;0.60;99.90;;;;;;4414018;28;659024;-69
2021/01/07 12:41:06;;;;;;;42.10;17.07;;;0.50;99.90;;;;;;4371865;28;657931;-66
2021/01/07 12:43:53;;;;;;;33.63;15.87;;;0.40;99.90;;;;;;4415576;28;657077;-69
2021/01/07 12:46:47;;;;;;;42.20;17.20;;;0.50;99.90;;;;;;4388838;28;659435;-69
2021/01/07 12:49:34;;;;;;;45.88;17.40;;;0.40;99.90;;;;;;4366534;28;657849;-66
2021/01/07 12:52:20;;;;;;;37.40;16.90;;;0.30;99.90;;;;;;4417175;28;657749;-69
2021/01/07 12:55:09;;;;;;;36.10;16.27;;;0.30;99.90;;;;;;4404564;28;657585;-69
2021/01/07 12:58:11;;;;;;;22.40;10.13;;;0.30;99.90;;;;;;4389197;28;658527;-69
2021/01/07 13:01:01;;;;;;;21.77;8.97;;;0.40;99.90;;;;;;4382437;28;658473;-69
2021/01/07 13:03:52;;;;;;;31.07;14.33;;;0.20;99.90;;;;;;4390601;28;656800;-69
2021/01/07 13:06:41;;;;;;;29.67;12.57;;;0.20;99.90;;;;;;4366495;28;658079;-69
2021/01/07 13:09:32;;;;;;;29.77;11.97;;;0.10;99.90;;;;;;4405453;28;660139;-67
2021/01/07 13:12:19;;;;;;;43.95;16.65;;;0.30;99.90;;;;;;4392118;28;656982;-66
2021/01/07 13:15:07;;;;;;;30.63;13.05;;;0.30;99.90;;;;;;4415557;28;657502;-69
2021/01/07 13:17:54;;;;;;;33.47;13.43;;;0.30;99.90;;;;;;4391728;28;657632;-68
2021/01/07 13:20:42;;;;;;;16.03;4.77;;;0.30;99.90;;;;;;4413749;28;658900;-69
2021/01/07 13:23:29;;;;;;;38.07;17.60;;;0.40;99.90;;;;;;4392856;28;656495;-69
2021/01/07 13:26:16;;;;;;;19.23;9.13;;;0.30;99.90;;;;;;4409548;28;659018;-68
2021/01/07 13:29:04;;;;;;;40.03;15.97;;;0.30;99.90;;;;;;4404330;28;656764;-66
2021/01/07 13:31:50;;;;;;;40.53;16.03;;;0.30;99.90;;;;;;4414024;28;658148;-69
2021/01/07 13:34:38;;;;;;;23.90;7.07;;;0.10;99.90;;;;;;4405262;28;658018;-69
2021/01/07 13:37:26;;;;;;;33.93;14.10;;;0.20;99.90;;;;;;4380554;28;658346;-69
2021/01/07 13:40:14;;;;;;;35.53;14.37;;;0.30;99.90;;;;;;4405683;28;657598;-67
2021/01/07 13:43:01;;;;;;;37.10;14.67;;;0.30;99.90;;;;;;4407993;28;659674;-69
2021/01/07 13:45:49;;;;;;;31.85;13.82;;;0.30;99.90;;;;;;4399678;28;657732;-66
2021/01/07 13:48:36;;;;;;;31.63;11.27;;;0.30;99.90;;;;;;4405022;28;658434;-69
2021/01/07 13:51:23;;;;;;;21.48;8.35;;;0.40;99.90;;;;;;4412851;28;658014;-67
2021/01/07 13:54:11;;;;;;;19.87;8.57;;;0.30;99.90;;;;;;4393183;28;656633;-69
2021/01/07 13:56:59;;;;;;;33.67;12.33;;;0.40;99.90;;;;;;4405054;28;656404;-66
2021/01/07 13:59:45;;;;;;;34.63;13.40;;;0.20;99.90;;;;;;4408919;28;657690;-69
2021/01/07 14:02:32;;;;;;;27.83;13.33;;;0.10;99.90;;;;;;4411441;28;658516;-68
2021/01/07 14:05:19;;;;;;;31.83;13.20;;;0.20;99.90;;;;;;4388400;28;657616;-69
2021/01/07 14:08:09;;;;;;;40.00;13.83;;;0.10;99.90;;;;;;4411148;28;659016;-69
2021/01/07 14:10:57;;;;;;;36.03;14.17;;;0.10;99.90;;;;;;4380607;28;658311;-69
2021/01/07 14:13:44;;;;;;;37.00;14.87;;;0.30;99.90;;;;;;4384113;28;657677;-69